Time;durP1;ratioP1;P1;durP2;ratioP2;P2;SDS_P1;SDS_P2;PMS_P1;PMS_P2;Temp;Humidity;BMP_temperature;BMP_pressure;BME280_temperature;BME280_humidity;BME280_pressure;Samples;Min_cycle;Max_cycle;Signal;HPM_P1;HPM_P2
2023/08/25 00:01:59;;;;;;;14.73;5.70;;;19.20;99.90;;;;;;5066408;28;20064;-62
2023/08/25 00:04:26;;;;;;;;;;;19.30;99.90;;;;;;5068560;28;20045;-62
2023/08/25 00:06:52;;;;;;;20.38;4.90;;;19.30;99.90;;;;;;5044647;28;19925;-61
2023/08/25 00:09:19;;;;;;;18.05;5.03;;;19.30;99.90;;;;;;5066563;28;20045;-60
2023/08/25 00:11:46;;;;;;;13.57;4.55;;;19.40;99.90;;;;;;5049395;28;20041;-61
2023/08/25 00:14:13;;;;;;;17.88;4.75;;;19.40;99.90;;;;;;5053628;28;20374;-61
2023/08/25 00:16:39;;;;;;;16.67;4.60;;;19.40;99.90;;;;;;5050097;28;20533;-62
2023/08/25 00:19:06;;;;;;;14.60;4.82;;;19.40;99.90;;;;;;5051847;28;20052;-61
2023/08/25 00:21:33;;;;;;;15.63;3.83;;;19.40;99.90;;;;;;5061964;28;20509;-62
2023/08/25 00:24:00;;;;;;;14.27;4.20;;;19.40;99.90;;;;;;5067164;28;20552;-62
2023/08/25 00:26:26;;;;;;;13.80;3.80;;;19.40;99.90;;;;;;5054377;28;20048;-61
2023/08/25 00:28:53;;;;;;;13.85;4.28;;;19.30;99.90;;;;;;5022387;28;20129;-60
2023/08/25 00:31:20;;;;;;;19.58;4.15;;;19.30;99.90;;;;;;5040891;28;20076;-62
2023/08/25 00:33:50;;;;;;;15.40;4.30;;;19.20;99.90;;;;;;5063460;28;20051;-62
2023/08/25 00:36:17;;;;;;;11.15;4.47;;;19.20;99.90;;;;;;5071864;28;20036;-61
2023/08/25 00:38:44;;;;;;;9.48;3.70;;;19.20;99.90;;;;;;5037038;28;20041;-62
2023/08/25 00:41:11;;;;;;;13.18;3.30;;;19.20;99.90;;;;;;5060041;28;20404;-62
2023/08/25 00:43:39;;;;;;;9.85;4.65;;;19.20;99.90;;;;;;5044571;28;20064;-62
2023/08/25 00:46:07;;;;;;;10.70;3.78;;;19.20;99.90;;;;;;5053485;28;20509;-62
2023/08/25 00:48:35;;;;;;;11.90;3.65;;;19.30;99.90;;;;;;5037075;28;20041;-60
2023/08/25 00:51:04;;;;;;;;;;;19.30;99.90;;;;;;5053739;28;20123;-62
2023/08/25 00:53:32;;;;;;;12.75;4.10;;;19.30;99.90;;;;;;5036407;28;19971;-62
2023/08/25 00:56:00;;;;;;;12.73;3.67;;;19.30;99.90;;;;;;5054072;28;20146;-62
2023/08/25 00:58:27;;;;;;;11.90;3.72;;;19.30;99.90;;;;;;5055441;28;20538;-61
2023/08/25 01:00:54;;;;;;;8.27;4.00;;;19.30;99.90;;;;;;5062783;28;20044;-62
2023/08/25 01:03:22;;;;;;;9.30;3.67;;;19.40;99.90;;;;;;5029845;28;20207;-62
2023/08/25 01:05:49;;;;;;;11.18;3.63;;;19.40;99.90;;;;;;5046663;28;20071;-62
2023/08/25 01:08:19;;;;;;;14.02;3.92;;;19.30;99.90;;;;;;5060113;28;20099;-62
2023/08/25 01:10:59;;;;;;;11.45;4.10;;;19.40;99.90;;;;;;5038866;28;20482;-62
2023/08/25 01:13:54;;;;;;;12.50;3.90;;;19.30;99.90;;;;;;5037103;28;20137;-62
2023/08/25 01:16:28;;;;;;;11.23;4.40;;;19.30;99.90;;;;;;5037815;28;20048;-62
2023/08/25 01:18:56;;;;;;;12.55;4.68;;;19.30;99.90;;;;;;5056917;28;20036;-61
2023/08/25 01:21:24;;;;;;;9.52;4.30;;;19.30;99.90;;;;;;5071388;28;20037;-62
2023/08/25 01:23:59;;;;;;;11.68;3.97;;;19.30;99.90;;;;;;5056601;28;20048;-62
2023/08/25 01:26:29;;;;;;;12.98;3.70;;;19.20;99.90;;;;;;5052058;28;20486;-62
2023/08/25 01:28:56;;;;;;;8.68;3.75;;;19.20;99.90;;;;;;5044103;28;20044;-62
2023/08/25 01:31:23;;;;;;;12.05;3.35;;;19.30;99.90;;;;;;5038429;28;20511;-61
2023/08/25 01:33:50;;;;;;;11.43;2.92;;;19.40;99.90;;;;;;5046925;28;20045;-61
2023/08/25 01:36:33;;;;;;;12.75;2.90;;;19.40;99.90;;;;;;5071362;28;20382;-62
2023/08/25 01:39:08;;;;;;;14.77;3.22;;;19.50;99.90;;;;;;5030503;28;20037;-62
2023/08/25 01:41:46;;;;;;;9.50;2.83;;;19.60;99.90;;;;;;5051664;28;20037;-60
2023/08/25 01:44:19;;;;;;;6.07;2.65;;;19.60;99.90;;;;;;5066685;28;20044;-61
2023/08/25 01:46:54;;;;;;;12.30;3.75;;;19.60;99.90;;;;;;5052780;28;20048;-62
2023/08/25 01:49:24;;;;;;;13.40;3.78;;;19.60;99.90;;;;;;5053667;28;20064;-62
2023/08/25 01:51:51;;;;;;;7.10;3.10;;;19.50;99.90;;;;;;5046378;28;20037;-61
2023/08/25 01:54:18;;;;;;;12.73;3.33;;;19.50;99.90;;;;;;5037853;28;20041;-61
2023/08/25 01:56:45;;;;;;;6.75;2.80;;;19.50;99.90;;;;;;5069867;28;20036;-62
2023/08/25 01:59:12;;;;;;;7.75;3.10;;;19.50;99.90;;;;;;5038272;28;20052;-61
2023/08/25 02:01:39;;;;;;;11.80;3.72;;;19.60;99.90;;;;;;5031978;28;20557;-60
2023/08/25 02:04:05;;;;;;;11.48;2.90;;;19.60;99.90;;;;;;5056911;28;20044;-62
2023/08/25 02:06:33;;;;;;;8.43;2.60;;;19.70;99.90;;;;;;5052760;28;20076;-61
2023/08/25 02:09:00;;;;;;;9.05;2.92;;;19.80;99.90;;;;;;5063111;28;20057;-62
2023/08/25 02:11:27;;;;;;;11.75;2.70;;;19.80;99.90;;;;;;5049949;28;20044;-62
2023/08/25 02:13:54;;;;;;;12.77;2.90;;;19.80;99.90;;;;;;5046983;28;20040;-62
2023/08/25 02:16:20;;;;;;;8.82;2.70;;;19.80;99.90;;;;;;5062644;28;20033;-61
2023/08/25 02:18:47;;;;;;;8.95;2.70;;;19.90;99.90;;;;;;5064678;28;20047;-62
2023/08/25 02:21:14;;;;;;;;;;;19.80;99.90;;;;;;5047086;28;20033;-61
2023/08/25 02:23:41;;;;;;;9.60;2.88;;;19.90;99.90;;;;;;5068827;28;19926;-61
2023/08/25 02:26:08;;;;;;;12.40;3.03;;;20.00;99.90;;;;;;5048919;28;20036;-61
2023/08/25 02:28:35;;;;;;;9.80;3.00;;;20.10;99.90;;;;;;5040029;28;20063;-62
2023/08/25 02:31:02;;;;;;;11.23;3.17;;;20.20;99.90;;;;;;5052197;28;20121;-61
2023/08/25 02:33:33;;;;;;;14.77;4.00;;;20.00;99.90;;;;;;5045120;28;20441;-60
2023/08/25 02:36:00;;;;;;;13.13;3.10;;;19.90;99.90;;;;;;5046788;28;20504;-62
2023/08/25 02:38:27;;;;;;;8.70;2.90;;;19.90;99.90;;;;;;5044734;28;20041;-62
2023/08/25 02:40:54;;;;;;;9.45;2.97;;;19.80;99.90;;;;;;5069629;28;20082;-62
2023/08/25 02:43:21;;;;;;;8.32;3.00;;;19.80;99.90;;;;;;5034473;28;20045;-62
2023/08/25 02:45:48;;;;;;;9.80;2.88;;;19.80;99.90;;;;;;5049391;28;20037;-60
2023/08/25 02:48:15;;;;;;;8.70;3.40;;;19.90;99.90;;;;;;5064888;28;20141;-62
2023/08/25 02:50:42;;;;;;;14.27;4.05;;;19.80;99.90;;;;;;5033586;28;20063;-61
2023/08/25 02:53:08;;;;;;;10.68;3.25;;;19.80;99.90;;;;;;5053598;28;20429;-62
2023/08/25 02:55:35;;;;;;;12.27;3.17;;;19.70;99.90;;;;;;5030488;28;20045;-62
2023/08/25 02:58:02;;;;;;;10.95;3.10;;;19.70;99.90;;;;;;5031065;28;20037;-61
2023/08/25 03:00:29;;;;;;;11.27;3.20;;;19.80;99.90;;;;;;5029693;28;20037;-59
2023/08/25 03:02:56;;;;;;;9.02;3.10;;;19.90;99.90;;;;;;5052837;28;20041;-61
2023/08/25 03:05:24;;;;;;;8.55;2.70;;;20.00;99.90;;;;;;5056215;28;20099;-61
2023/08/25 03:07:52;;;;;;;10.90;2.53;;;20.00;99.90;;;;;;5032403;28;20049;-62
2023/08/25 03:10:20;;;;;;;9.32;3.28;;;20.00;99.90;;;;;;5046122;28;20519;-60
2023/08/25 03:12:47;;;;;;;;;;;20.10;99.90;;;;;;5053485;28;20045;-61
2023/08/25 03:15:14;;;;;;;10.80;3.15;;;20.10;99.90;;;;;;5044563;28;19939;-61
2023/08/25 03:17:41;;;;;;;15.70;3.00;;;20.10;99.90;;;;;;5052596;28;20052;-61
2023/08/25 03:20:09;;;;;;;17.30;3.10;;;20.10;99.90;;;;;;5024684;28;20045;-61
2023/08/25 03:22:36;;;;;;;9.90;3.17;;;20.20;99.90;;;;;;5065750;28;20032;-61
2023/08/25 03:25:03;;;;;;;8.10;2.88;;;20.20;99.90;;;;;;5041093;28;20123;-60
2023/08/25 03:27:32;;;;;;;;;;;20.20;99.90;;;;;;5058830;28;20375;-61
2023/08/25 03:30:00;;;;;;;10.48;2.92;;;20.20;99.90;;;;;;5057509;28;20419;-62
2023/08/25 03:32:29;;;;;;;10.45;3.03;;;20.30;99.90;;;;;;5040652;28;20041;-62
2023/08/25 03:34:56;;;;;;;8.32;3.20;;;20.30;99.90;;;;;;5037747;28;20074;-62
2023/08/25 03:37:24;;;;;;;16.92;3.92;;;20.20;99.90;;;;;;5026312;28;20450;-60
2023/08/25 03:39:52;;;;;;;11.13;3.15;;;20.20;99.90;;;;;;5049010;28;20102;-62
2023/08/25 03:42:19;;;;;;;10.95;3.28;;;20.20;99.90;;;;;;5049374;28;20379;-62
2023/08/25 03:44:47;;;;;;;9.82;3.28;;;20.20;99.90;;;;;;5036860;28;20075;-62
2023/08/25 03:47:14;;;;;;;11.82;3.50;;;20.20;99.90;;;;;;5038284;28;20062;-62
2023/08/25 03:49:41;;;;;;;11.70;3.65;;;20.30;99.90;;;;;;5037272;28;20136;-61
2023/08/25 03:52:08;;;;;;;16.90;3.42;;;20.40;99.90;;;;;;5038873;28;20596;-61
2023/08/25 03:54:35;;;;;;;12.73;3.38;;;20.50;99.90;;;;;;5065083;28;20037;-62
2023/08/25 03:57:06;;;;;;;14.25;3.75;;;20.60;99.90;;;;;;5030282;28;20047;-61
2023/08/25 03:59:33;;;;;;;11.60;3.45;;;20.60;99.90;;;;;;5066914;28;20037;-62
2023/08/25 04:02:03;;;;;;;10.18;3.20;;;20.50;99.90;;;;;;5039844;28;20058;-62
2023/08/25 04:04:33;;;;;;;10.68;3.35;;;20.50;99.90;;;;;;5043141;28;20079;-61
2023/08/25 04:07:00;;;;;;;15.88;3.80;;;20.50;99.90;;;;;;5040615;28;20036;-61
2023/08/25 04:09:27;;;;;;;13.80;3.45;;;20.60;99.90;;;;;;5064032;28;20052;-60
2023/08/25 04:11:57;;;;;;;7.53;2.95;;;20.60;99.90;;;;;;5050457;28;20045;-61
2023/08/25 04:14:24;;;;;;;10.93;3.92;;;20.60;99.90;;;;;;5067146;28;20294;-61
2023/08/25 04:16:51;;;;;;;16.35;3.35;;;20.60;99.90;;;;;;5040953;28;20090;-62
2023/08/25 04:19:21;;;;;;;13.23;4.10;;;20.60;99.90;;;;;;5048389;28;20069;-62
2023/08/25 04:21:48;;;;;;;10.60;3.25;;;20.70;99.90;;;;;;5044223;28;20128;-62
2023/08/25 04:24:19;;;;;;;;;;;20.70;99.90;;;;;;5054431;28;20043;-62
2023/08/25 04:26:45;;;;;;;9.48;3.90;;;20.80;99.90;;;;;;5044520;28;20020;-62
2023/08/25 04:29:12;;;;;;;10.73;3.60;;;20.80;99.90;;;;;;5036185;28;20541;-62
2023/08/25 04:31:40;;;;;;;16.23;3.10;;;20.90;99.90;;;;;;5040492;28;20052;-62
2023/08/25 04:34:08;;;;;;;16.38;3.72;;;21.00;99.90;;;;;;5045824;28;20045;-60
2023/08/25 04:36:36;;;;;;;13.60;3.60;;;21.00;99.90;;;;;;5029994;28;20146;-62
2023/08/25 04:39:03;;;;;;;7.25;3.10;;;21.00;99.90;;;;;;5033548;28;20459;-62
2023/08/25 04:41:31;;;;;;;18.45;3.85;;;21.00;99.90;;;;;;5031414;28;20044;-62
2023/08/25 04:43:58;;;;;;;;;;;21.20;99.90;;;;;;5044138;28;20073;-62
2023/08/25 04:46:28;;;;;;;13.32;4.75;;;21.20;99.90;;;;;;5050104;28;19935;-62
2023/08/25 04:48:55;;;;;;;15.23;3.95;;;21.30;99.90;;;;;;5043807;28;20087;-62
2023/08/25 04:51:23;;;;;;;10.48;3.72;;;21.20;99.90;;;;;;5044936;28;20037;-61
2023/08/25 04:53:50;;;;;;;16.25;3.97;;;21.30;99.90;;;;;;5036905;28;20073;-61
2023/08/25 04:56:18;;;;;;;12.25;3.65;;;21.40;99.90;;;;;;5033137;28;20037;-62
2023/08/25 04:58:45;;;;;;;10.18;3.30;;;21.40;99.90;;;;;;5040943;28;20132;-61
2023/08/25 05:01:13;;;;;;;14.25;3.35;;;21.50;99.90;;;;;;5033168;28;20036;-62
2023/08/25 05:03:42;;;;;;;11.63;3.33;;;21.50;99.90;;;;;;5017353;28;1030289;-62
2023/08/25 05:06:09;;;;;;;13.10;3.90;;;21.60;99.90;;;;;;5037294;28;20068;-61
2023/08/25 05:08:36;;;;;;;13.82;4.28;;;21.60;99.90;;;;;;5037749;28;20091;-61
2023/08/25 05:11:03;;;;;;;11.05;3.15;;;21.50;99.90;;;;;;5032200;28;20139;-62
2023/08/25 05:13:31;;;;;;;10.15;3.85;;;21.50;99.90;;;;;;5045788;28;20047;-60
2023/08/25 05:15:58;;;;;;;;;;;21.50;99.90;;;;;;5028508;28;20053;-62
2023/08/25 05:18:42;;;;;;;11.77;4.10;;;21.50;99.90;;;;;;5033940;28;19925;-62
2023/08/25 05:21:10;;;;;;;13.02;4.03;;;21.50;99.90;;;;;;5037037;28;20044;-62
2023/08/25 05:23:37;;;;;;;10.73;3.65;;;21.50;99.90;;;;;;5045591;28;20486;-61
2023/08/25 05:26:04;;;;;;;13.50;3.90;;;21.40;99.90;;;;;;5037870;28;20422;-62
2023/08/25 05:28:30;;;;;;;15.93;3.92;;;21.40;99.90;;;;;;5035150;28;20044;-62
2023/08/25 05:30:58;;;;;;;9.10;3.55;;;21.50;99.90;;;;;;5032335;28;20076;-62
2023/08/25 05:33:45;;;;;;;13.48;3.53;;;21.50;99.90;;;;;;5026249;28;20402;-63
2023/08/25 05:36:34;;;;;;;9.07;3.78;;;21.50;99.90;;;;;;5036728;28;20041;-61
2023/08/25 05:39:01;;;;;;;13.77;3.10;;;21.40;99.90;;;;;;5031705;28;20498;-62
2023/08/25 05:41:28;;;;;;;;;;;21.50;99.90;;;;;;5047319;28;20098;-61
2023/08/25 05:43:55;;;;;;;12.85;3.03;;;21.50;99.90;;;;;;5059741;28;19920;-61
2023/08/25 05:46:22;;;;;;;12.40;3.60;;;21.50;99.90;;;;;;5037539;28;20086;-61
2023/08/25 05:48:49;;;;;;;;;;;21.60;99.90;;;;;;5053867;28;20052;-62
2023/08/25 05:51:16;;;;;;;12.65;3.80;;;21.60;99.90;;;;;;5053291;28;20494;-62
2023/08/25 05:53:44;;;;;;;11.05;3.53;;;21.60;99.90;;;;;;5040890;28;20053;-62
2023/08/25 05:56:11;;;;;;;10.43;3.38;;;21.60;99.90;;;;;;5062252;28;20123;-62
2023/08/25 05:58:38;;;;;;;14.73;3.65;;;21.60;99.90;;;;;;5055214;28;20037;-62
2023/08/25 06:01:04;;;;;;;10.57;4.07;;;21.70;99.90;;;;;;5052560;28;20052;-62
2023/08/25 06:03:31;;;;;;;9.48;2.97;;;21.70;99.90;;;;;;5070510;28;20110;-60
2023/08/25 06:05:58;;;;;;;7.35;2.85;;;21.80;99.90;;;;;;5045741;28;20576;-62
2023/08/25 06:08:26;;;;;;;10.43;3.03;;;21.80;99.90;;;;;;5045967;28;20053;-61
2023/08/25 06:10:53;;;;;;;12.00;3.38;;;21.90;99.90;;;;;;5046564;28;20056;-62
2023/08/25 06:13:20;;;;;;;13.20;3.28;;;21.90;99.90;;;;;;5056556;28;20037;-62
2023/08/25 06:15:48;;;;;;;13.38;3.25;;;21.90;99.90;;;;;;5050189;28;20052;-61
2023/08/25 06:18:16;;;;;;;13.05;3.10;;;21.90;99.90;;;;;;5021529;28;20041;-62
2023/08/25 06:20:43;;;;;;;9.93;3.38;;;21.90;99.90;;;;;;5047690;28;20033;-62
2023/08/25 06:23:11;;;;;;;11.13;3.55;;;21.90;99.90;;;;;;5069791;28;20059;-62
2023/08/25 06:25:38;;;;;;;10.70;3.55;;;21.90;99.90;;;;;;5050016;28;20511;-62
2023/08/25 06:28:05;;;;;;;13.60;3.75;;;21.90;99.90;;;;;;5070127;28;20045;-62
2023/08/25 06:30:35;;;;;;;13.35;3.00;;;21.90;99.90;;;;;;5056499;28;20051;-62
2023/08/25 06:33:02;;;;;;;9.00;3.78;;;22.00;99.90;;;;;;5070580;28;20067;-62
2023/08/25 06:35:29;;;;;;;9.18;3.53;;;22.10;99.90;;;;;;5069182;28;20102;-63
2023/08/25 06:37:56;;;;;;;11.05;3.85;;;22.20;99.90;;;;;;5061943;28;20041;-61
2023/08/25 06:40:23;;;;;;;11.98;3.70;;;22.20;99.90;;;;;;5048931;28;20033;-62
2023/08/25 06:42:49;;;;;;;13.27;3.35;;;22.20;99.90;;;;;;5047202;28;20478;-61
2023/08/25 06:45:16;;;;;;;8.32;3.13;;;22.30;99.90;;;;;;5072103;28;20580;-61
2023/08/25 06:47:45;;;;;;;13.32;3.58;;;22.40;99.90;;;;;;5073105;28;20045;-63
2023/08/25 06:50:14;;;;;;;12.52;3.22;;;22.40;99.90;;;;;;5073999;28;20053;-62
2023/08/25 06:52:41;;;;;;;12.65;3.55;;;22.40;99.90;;;;;;5057844;28;20059;-63
2023/08/25 06:55:08;;;;;;;11.75;3.38;;;22.50;99.90;;;;;;5071031;28;20055;-62
2023/08/25 06:57:35;;;;;;;10.27;3.40;;;22.60;99.90;;;;;;5065222;28;20127;-63
2023/08/25 07:00:04;;;;;;;;;;;22.70;99.90;;;;;;5074408;28;20079;-62
2023/08/25 07:02:31;;;;;;;19.02;3.83;;;22.90;99.90;;;;;;5062140;28;19921;-62
2023/08/25 07:04:58;;;;;;;9.60;3.10;;;23.00;99.90;;;;;;5070512;28;20402;-62
2023/08/25 07:07:26;;;;;;;10.95;3.72;;;23.00;99.90;;;;;;5072832;28;20048;-61
2023/08/25 07:09:53;;;;;;;12.63;3.88;;;22.90;99.90;;;;;;5068208;28;20044;-62
2023/08/25 07:12:20;;;;;;;10.82;4.38;;;22.90;99.90;;;;;;5057042;28;20284;-62
2023/08/25 07:14:47;;;;;;;15.82;3.35;;;22.90;99.90;;;;;;5066226;28;20136;-63
2023/08/25 07:17:14;;;;;;;13.30;3.63;;;22.90;99.90;;;;;;5057890;28;20052;-62
2023/08/25 07:19:40;;;;;;;9.73;3.80;;;22.90;99.90;;;;;;5053719;28;20037;-61
2023/08/25 07:22:08;;;;;;;10.63;3.58;;;23.10;99.90;;;;;;5061347;28;20090;-62
2023/08/25 07:24:35;;;;;;;13.23;3.60;;;23.30;99.90;;;;;;5058971;28;20045;-62
2023/08/25 07:27:02;;;;;;;10.40;3.08;;;23.40;99.90;;;;;;5058598;28;20495;-62
2023/08/25 07:29:28;;;;;;;12.00;3.72;;;23.50;99.90;;;;;;5073620;28;20059;-63
2023/08/25 07:31:55;;;;;;;10.90;3.50;;;23.60;99.90;;;;;;5073200;28;20524;-62
2023/08/25 07:34:22;;;;;;;13.07;3.53;;;23.70;99.90;;;;;;5070019;28;20490;-62
2023/08/25 07:36:49;;;;;;;7.38;3.28;;;23.80;99.90;;;;;;5047571;28;20041;-63
2023/08/25 07:39:15;;;;;;;6.25;3.47;;;23.90;99.90;;;;;;5055966;28;20378;-63
2023/08/25 07:41:42;;;;;;;11.10;3.63;;;24.20;99.90;;;;;;5072666;28;20043;-62
2023/08/25 07:44:09;;;;;;;8.38;2.85;;;24.40;99.90;;;;;;5064394;28;20362;-62
2023/08/25 07:46:38;;;;;;;8.75;3.45;;;24.60;99.90;;;;;;5054573;28;20049;-62
2023/08/25 07:49:08;;;;;;;8.00;3.58;;;24.50;99.90;;;;;;5068054;28;20048;-63
2023/08/25 07:51:38;;;;;;;10.80;3.20;;;24.40;99.90;;;;;;5072773;28;20060;-62
2023/08/25 07:54:07;;;;;;;9.48;3.20;;;24.30;99.90;;;;;;5064855;28;20143;-63
2023/08/25 07:56:33;;;;;;;;;;;24.30;99.90;;;;;;5046619;28;20498;-61
2023/08/25 07:59:00;;;;;;;16.25;4.43;;;24.40;99.90;;;;;;5072807;28;19924;-62
2023/08/25 08:01:27;;;;;;;10.00;3.38;;;24.80;99.90;;;;;;5058312;28;20037;-61
2023/08/25 08:03:54;;;;;;;;;;;25.20;99.90;;;;;;5072797;28;20040;-62
2023/08/25 08:06:21;;;;;;;9.13;3.10;;;25.50;99.90;;;;;;5059515;28;20369;-61
2023/08/25 08:08:48;;;;;;;6.00;3.53;;;25.70;99.90;;;;;;5072851;28;20123;-63
2023/08/25 08:11:15;;;;;;;8.38;3.60;;;25.80;99.90;;;;;;5071547;28;20382;-62
2023/08/25 08:13:42;;;;;;;9.25;3.55;;;26.00;99.90;;;;;;5069861;28;20132;-63
2023/08/25 08:16:08;;;;;;;13.13;4.40;;;26.10;99.90;;;;;;5040967;28;20414;-63
2023/08/25 08:18:35;;;;;;;13.13;3.33;;;26.10;99.90;;;;;;5051489;28;20196;-63
2023/08/25 08:21:02;;;;;;;11.90;3.90;;;26.00;99.90;;;;;;5050681;28;20036;-63
2023/08/25 08:23:29;;;;;;;14.38;3.50;;;25.80;99.90;;;;;;5056143;28;20040;-62
2023/08/25 08:25:55;;;;;;;7.65;2.97;;;25.70;99.90;;;;;;5057655;28;20048;-63
2023/08/25 08:28:22;;;;;;;12.07;3.40;;;25.60;99.90;;;;;;5069999;28;20053;-62
2023/08/25 08:30:49;;;;;;;12.18;3.47;;;25.50;99.90;;;;;;5064786;28;20045;-63
2023/08/25 08:33:16;;;;;;;9.80;4.13;;;25.40;99.90;;;;;;5067235;28;20083;-63
2023/08/25 08:35:43;;;;;;;9.48;3.60;;;25.30;99.90;;;;;;5044211;28;20048;-63
2023/08/25 08:38:10;;;;;;;;;;;25.40;99.90;;;;;;5069384;28;20044;-63
2023/08/25 08:40:37;;;;;;;11.20;3.20;;;25.40;99.90;;;;;;5052134;28;19929;-63
2023/08/25 08:43:09;;;;;;;11.25;3.42;;;25.40;99.90;;;;;;5067720;28;20040;-63
2023/08/25 08:45:39;;;;;;;9.52;3.63;;;25.40;99.90;;;;;;5047200;28;20051;-63
2023/08/25 08:48:06;;;;;;;11.82;3.50;;;25.60;99.90;;;;;;5047955;28;20049;-63
2023/08/25 08:50:34;;;;;;;10.32;3.60;;;25.80;99.90;;;;;;5051774;28;20029;-63
2023/08/25 08:53:04;;;;;;;13.25;3.38;;;25.90;99.90;;;;;;5049224;28;20061;-62
2023/08/25 08:55:33;;;;;;;15.55;3.75;;;26.10;99.90;;;;;;5047522;28;20501;-62
2023/08/25 08:57:59;;;;;;;8.52;3.55;;;26.20;99.90;;;;;;5058626;28;20073;-63
2023/08/25 09:00:27;;;;;;;14.70;3.55;;;26.20;99.90;;;;;;5051166;28;20037;-63
2023/08/25 09:02:58;;;;;;;13.93;3.75;;;26.30;99.90;;;;;;5051534;28;20063;-62
2023/08/25 09:05:28;;;;;;;9.85;3.80;;;26.40;99.90;;;;;;5066670;28;20126;-61
2023/08/25 09:08:00;;;;;;;10.65;3.90;;;26.60;99.90;;;;;;5061843;28;20501;-62
2023/08/25 09:10:28;;;;;;;12.50;3.50;;;26.50;99.90;;;;;;5068519;28;20044;-63
2023/08/25 09:12:56;;;;;;;11.45;4.47;;;26.60;99.90;;;;;;5066219;28;20131;-63
2023/08/25 09:15:28;;;;;;;9.73;3.67;;;26.70;99.90;;;;;;5053607;28;20045;-62
2023/08/25 09:18:07;;;;;;;10.15;3.85;;;27.10;99.90;;;;;;5065247;28;20047;-63
2023/08/25 09:20:38;;;;;;;14.27;4.15;;;27.40;99.90;;;;;;5070679;28;20133;-63
2023/08/25 09:23:08;;;;;;;14.20;4.22;;;27.50;99.90;;;;;;5064323;28;20040;-63
2023/08/25 09:25:34;;;;;;;14.30;5.10;;;27.40;99.90;;;;;;5070717;28;20032;-63
2023/08/25 09:28:04;;;;;;;5.25;3.45;;;27.60;99.90;;;;;;5063126;28;20047;-63
2023/08/25 09:30:36;;;;;;;14.55;3.80;;;27.80;99.90;;;;;;5064036;28;20386;-63
2023/08/25 09:33:10;;;;;;;8.80;3.50;;;27.90;99.90;;;;;;5063792;28;20059;-63
2023/08/25 09:35:37;;;;;;;9.85;3.65;;;27.60;99.90;;;;;;5051982;28;20410;-63
2023/08/25 09:38:03;;;;;;;;;;;27.40;99.90;;;;;;5062953;28;20045;-63
2023/08/25 09:40:31;;;;;;;8.45;3.08;;;27.50;99.90;;;;;;5058241;28;19926;-63
2023/08/25 09:43:03;;;;;;;9.75;3.67;;;27.70;99.90;;;;;;5071131;28;20132;-63
2023/08/25 09:45:31;;;;;;;12.05;3.60;;;27.50;99.90;;;;;;5061716;28;20561;-63
2023/08/25 09:48:09;;;;;;;12.27;3.83;;;27.70;99.90;;;;;;5064172;28;20132;-63
2023/08/25 09:50:39;;;;;;;12.30;5.00;;;27.90;99.90;;;;;;5052664;28;20029;-62
2023/08/25 09:53:08;;;;;;;14.85;4.05;;;28.00;99.90;;;;;;5071046;28;20051;-62
2023/08/25 09:55:37;;;;;;;10.23;3.20;;;28.40;99.90;;;;;;5066578;28;20045;-63
2023/08/25 09:58:05;;;;;;;8.93;3.40;;;28.80;99.90;;;;;;5057063;28;20508;-62
2023/08/25 10:00:39;;;;;;;7.78;3.83;;;29.00;99.90;;;;;;5054854;28;20129;-62
2023/08/25 10:03:10;;;;;;;7.45;3.67;;;29.50;99.90;;;;;;5054380;28;20046;-62
2023/08/25 10:05:38;;;;;;;9.98;3.58;;;29.90;99.90;;;;;;5069823;28;20120;-62
2023/08/25 10:08:09;;;;;;;10.35;3.83;;;30.30;99.90;;;;;;5070508;28;20596;-62
2023/08/25 10:10:40;;;;;;;13.10;3.85;;;30.10;99.90;;;;;;5046249;28;20068;-62
2023/08/25 10:13:11;;;;;;;6.72;2.78;;;29.30;99.90;;;;;;5050106;28;20415;-63
2023/08/25 10:15:42;;;;;;;4.05;2.70;;;28.30;99.90;;;;;;5053453;28;20401;-62
2023/08/25 10:18:09;;;;;;;8.38;2.80;;;27.30;99.90;;;;;;5062118;28;20497;-62
2023/08/25 10:20:37;;;;;;;4.57;2.90;;;26.60;99.90;;;;;;5057293;28;20383;-62
2023/08/25 10:23:05;;;;;;;6.80;2.78;;;26.10;99.90;;;;;;5051033;28;20045;-62
2023/08/25 10:25:32;;;;;;;7.18;3.38;;;25.90;99.90;;;;;;5072998;28;20766;-62
2023/08/25 10:28:03;;;;;;;4.50;3.00;;;25.70;99.90;;;;;;5073931;28;20052;-61
2023/08/25 10:30:31;;;;;;;3.95;3.08;;;25.40;99.90;;;;;;5072319;28;20045;-62
2023/08/25 10:33:11;;;;;;;6.80;3.28;;;25.20;99.90;;;;;;5062952;28;20294;-62
2023/08/25 10:35:46;;;;;;;10.10;3.03;;;25.00;99.90;;;;;;5062510;28;20060;-61
2023/08/25 10:38:19;;;;;;;4.53;2.63;;;24.90;99.90;;;;;;5062403;28;20063;-61
2023/08/25 10:40:50;;;;;;;4.75;3.20;;;25.00;99.90;;;;;;5055392;28;20075;-62
2023/08/25 10:43:24;;;;;;;6.80;3.13;;;25.20;99.90;;;;;;5073884;28;20110;-62
2023/08/25 10:45:52;;;;;;;6.65;3.08;;;25.50;99.90;;;;;;5058168;28;20504;-61
2023/08/25 10:48:19;;;;;;;9.40;3.15;;;25.80;99.90;;;;;;5072814;28;20048;-63
2023/08/25 10:51:10;;;;;;;7.32;3.70;;;25.90;99.90;;;;;;5056756;28;20049;-63
2023/08/25 10:53:50;;;;;;;6.63;3.38;;;25.90;99.90;;;;;;5073981;28;20049;-63
2023/08/25 10:56:17;;;;;;;5.65;3.38;;;25.80;99.90;;;;;;5064469;28;20055;-62
2023/08/25 10:59:05;;;;;;;6.30;3.65;;;25.80;99.90;;;;;;5074511;28;20048;-62
2023/08/25 11:01:42;;;;;;;4.68;3.33;;;25.80;99.90;;;;;;5071820;28;20058;-61
2023/08/25 11:04:13;;;;;;;5.50;3.20;;;25.70;99.90;;;;;;5061118;28;20045;-62
2023/08/25 11:06:57;;;;;;;3.97;3.17;;;25.90;99.90;;;;;;5073244;28;20044;-61
2023/08/25 11:09:24;;;;;;;4.70;3.38;;;26.10;99.90;;;;;;5064335;28;20118;-61
2023/08/25 11:12:06;;;;;;;3.85;3.50;;;26.20;99.90;;;;;;5072685;28;20048;-61
2023/08/25 11:14:39;;;;;;;4.78;2.92;;;26.30;99.90;;;;;;5054474;28;20283;-62
2023/08/25 11:17:08;;;;;;;3.38;3.03;;;26.30;99.90;;;;;;5053343;28;20245;-61
2023/08/25 11:19:37;;;;;;;5.38;3.28;;;26.30;99.90;;;;;;5068065;28;20458;-61
2023/08/25 11:22:07;;;;;;;5.22;3.55;;;26.40;99.90;;;;;;5067494;28;20056;-62
2023/08/25 11:24:34;;;;;;;5.25;3.25;;;26.50;99.90;;;;;;5052081;28;20495;-61
2023/08/25 11:27:05;;;;;;;;;;;26.60;99.90;;;;;;5053482;28;20509;-62
2023/08/25 11:29:33;;;;;;;5.90;3.58;;;26.70;99.90;;;;;;5049872;28;19929;-63
2023/08/25 11:32:01;;;;;;;5.40;3.67;;;26.80;99.90;;;;;;5050581;28;20188;-62
2023/08/25 11:34:34;;;;;;;4.55;3.50;;;26.90;99.90;;;;;;5064553;28;20094;-62
2023/08/25 11:37:01;;;;;;;4.70;3.80;;;27.10;99.90;;;;;;5058690;28;20048;-61
2023/08/25 11:39:27;;;;;;;;;;;27.20;99.90;;;;;;5053947;28;20045;-63
2023/08/25 11:41:55;;;;;;;7.07;3.92;;;27.30;99.90;;;;;;5058971;28;19921;-62
2023/08/25 11:44:23;;;;;;;5.43;3.40;;;27.40;99.90;;;;;;5064942;28;20075;-62
2023/08/25 11:46:53;;;;;;;5.63;3.58;;;27.40;99.90;;;;;;5063916;28;20037;-61
2023/08/25 11:49:26;;;;;;;6.65;4.13;;;27.40;99.90;;;;;;5070849;28;20062;-61
2023/08/25 11:51:53;;;;;;;6.03;4.00;;;27.40;99.90;;;;;;5056627;28;20037;-63
2023/08/25 11:54:20;;;;;;;4.68;3.38;;;27.50;99.90;;;;;;5070177;28;20044;-61
2023/08/25 11:56:53;;;;;;;;;;;27.60;99.90;;;;;;5054105;28;20458;-62
2023/08/25 11:59:20;;;;;;;5.68;3.13;;;27.50;99.90;;;;;;5069038;28;20010;-61
2023/08/25 12:01:51;;;;;;;6.63;4.15;;;27.60;99.90;;;;;;5053484;28;20474;-62
2023/08/25 12:04:25;;;;;;;7.72;3.58;;;27.70;99.90;;;;;;5066893;28;20037;-63
2023/08/25 12:06:53;;;;;;;6.57;3.70;;;27.70;99.90;;;;;;5058069;28;20032;-62
2023/08/25 12:09:22;;;;;;;7.70;3.80;;;27.70;99.90;;;;;;5064767;28;20041;-62
2023/08/25 12:11:50;;;;;;;4.72;3.75;;;27.50;99.90;;;;;;5055981;28;20040;-62
2023/08/25 12:14:27;;;;;;;6.07;4.55;;;27.40;99.90;;;;;;5073286;28;20128;-62
2023/08/25 12:16:57;;;;;;;8.68;4.25;;;27.40;99.90;;;;;;5050536;28;20048;-62
2023/08/25 12:19:27;;;;;;;8.75;4.18;;;27.50;99.90;;;;;;5053106;28;20033;-62
2023/08/25 12:21:56;;;;;;;6.75;4.20;;;27.50;99.90;;;;;;5068089;28;20037;-62
2023/08/25 12:24:23;;;;;;;5.85;4.30;;;27.50;99.90;;;;;;5043356;28;20037;-61
2023/08/25 12:26:50;;;;;;;4.70;4.13;;;27.50;99.90;;;;;;5056255;28;20044;-60
2023/08/25 12:29:18;;;;;;;;;;;27.50;99.90;;;;;;5073556;28;20580;-62
2023/08/25 12:31:45;;;;;;;7.35;4.50;;;27.60;99.90;;;;;;5072617;28;19951;-63
2023/08/25 12:34:12;;;;;;;6.35;4.25;;;27.70;99.90;;;;;;5056204;28;20437;-61
2023/08/25 12:36:39;;;;;;;5.50;4.20;;;27.60;99.90;;;;;;5067468;28;20056;-61
2023/08/25 12:39:05;;;;;;;;;;;27.70;99.90;;;;;;5059687;28;20136;-62
2023/08/25 12:41:32;;;;;;;8.93;4.25;;;27.60;99.90;;;;;;5066693;28;19920;-62
2023/08/25 12:43:59;;;;;;;8.85;4.82;;;27.70;99.90;;;;;;5062845;28;20038;-62
2023/08/25 12:46:26;;;;;;;7.72;4.40;;;27.60;99.90;;;;;;5038770;28;20037;-61
2023/08/25 12:48:53;;;;;;;11.38;5.05;;;27.60;99.90;;;;;;5044897;28;20049;-62
2023/08/25 12:51:19;;;;;;;7.85;4.47;;;27.60;99.90;;;;;;5048203;28;20068;-61
2023/08/25 12:53:46;;;;;;;9.02;5.32;;;27.60;99.90;;;;;;5050201;28;20052;-62